sensor_id;sensor_type;location;lat;lon;timestamp;temperature;humidity
12268;DHT22;6196;48.398;11.736;2022-07-23T00:01:24;23.80;99.90
12268;DHT22;6196;48.398;11.736;2022-07-23T00:03:54;23.70;99.90
12268;DHT22;6196;48.398;11.736;2022-07-23T00:06:22;23.70;99.90
12268;DHT22;6196;48.398;11.736;2022-07-23T00:08:49;23.50;99.90
12268;DHT22;6196;48.398;11.736;2022-07-23T00:11:17;23.50;99.90
12268;DHT22;6196;48.398;11.736;2022-07-23T00:13:44;23.50;99.90
12268;DHT22;6196;48.398;11.736;2022-07-23T00:16:11;23.40;99.90
12268;DHT22;6196;48.398;11.736;2022-07-23T00:18:38;23.40;99.90
12268;DHT22;6196;48.398;11.736;2022-07-23T00:21:05;23.40;99.90
12268;DHT22;6196;48.398;11.736;2022-07-23T00:23:33;23.40;99.90
12268;DHT22;6196;48.398;11.736;2022-07-23T00:26:00;23.40;99.90
12268;DHT22;6196;48.398;11.736;2022-07-23T00:28:27;23.20;99.90
12268;DHT22;6196;48.398;11.736;2022-07-23T00:30:53;23.10;99.90
12268;DHT22;6196;48.398;11.736;2022-07-23T00:33:21;23.00;99.90
12268;DHT22;6196;48.398;11.736;2022-07-23T00:35:47;23.00;99.90
12268;DHT22;6196;48.398;11.736;2022-07-23T00:38:14;22.90;99.90
12268;DHT22;6196;48.398;11.736;2022-07-23T00:40:41;22.90;99.90
12268;DHT22;6196;48.398;11.736;2022-07-23T00:43:08;22.80;99.90
12268;DHT22;6196;48.398;11.736;2022-07-23T00:45:35;22.80;99.90
12268;DHT22;6196;48.398;11.736;2022-07-23T00:48:03;22.80;99.90
12268;DHT22;6196;48.398;11.736;2022-07-23T00:50:30;22.80;99.90
12268;DHT22;6196;48.398;11.736;2022-07-23T00:52:57;22.90;99.90
12268;DHT22;6196;48.398;11.736;2022-07-23T00:55:24;22.80;99.90
12268;DHT22;6196;48.398;11.736;2022-07-23T00:57:53;22.90;99.90
12268;DHT22;6196;48.398;11.736;2022-07-23T01:00:20;22.90;99.90
12268;DHT22;6196;48.398;11.736;2022-07-23T01:02:47;22.80;99.90
12268;DHT22;6196;48.398;11.736;2022-07-23T01:05:15;22.90;99.90
12268;DHT22;6196;48.398;11.736;2022-07-23T01:07:42;23.00;99.90
12268;DHT22;6196;48.398;11.736;2022-07-23T01:10:09;23.00;99.90
12268;DHT22;6196;48.398;11.736;2022-07-23T01:12:55;23.20;99.90
12268;DHT22;6196;48.398;11.736;2022-07-23T01:15:23;23.50;99.90
12268;DHT22;6196;48.398;11.736;2022-07-23T01:17:50;23.70;99.90
12268;DHT22;6196;48.398;11.736;2022-07-23T01:20:18;23.80;99.90
12268;DHT22;6196;48.398;11.736;2022-07-23T01:22:45;23.90;99.90
12268;DHT22;6196;48.398;11.736;2022-07-23T01:25:13;24.00;99.90
12268;DHT22;6196;48.398;11.736;2022-07-23T01:27:40;24.00;99.90
12268;DHT22;6196;48.398;11.736;2022-07-23T01:30:08;24.00;99.90
12268;DHT22;6196;48.398;11.736;2022-07-23T01:32:35;23.90;99.90
12268;DHT22;6196;48.398;11.736;2022-07-23T01:35:03;24.00;99.90
12268;DHT22;6196;48.398;11.736;2022-07-23T01:37:30;24.00;99.90
12268;DHT22;6196;48.398;11.736;2022-07-23T01:39:57;24.00;99.90
12268;DHT22;6196;48.398;11.736;2022-07-23T01:42:24;23.80;99.90
12268;DHT22;6196;48.398;11.736;2022-07-23T01:44:52;23.70;99.90
12268;DHT22;6196;48.398;11.736;2022-07-23T01:47:19;23.50;99.90
12268;DHT22;6196;48.398;11.736;2022-07-23T01:49:46;23.40;99.90
12268;DHT22;6196;48.398;11.736;2022-07-23T01:52:13;23.30;99.90
12268;DHT22;6196;48.398;11.736;2022-07-23T01:54:39;23.20;99.90
12268;DHT22;6196;48.398;11.736;2022-07-23T01:57:07;23.10;99.90
12268;DHT22;6196;48.398;11.736;2022-07-23T01:59:35;23.10;99.90
12268;DHT22;6196;48.398;11.736;2022-07-23T02:02:02;22.90;99.90
12268;DHT22;6196;48.398;11.736;2022-07-23T02:04:30;22.80;99.90
12268;DHT22;6196;48.398;11.736;2022-07-23T02:06:57;22.60;99.90
12268;DHT22;6196;48.398;11.736;2022-07-23T02:09:24;22.40;99.90
12268;DHT22;6196;48.398;11.736;2022-07-23T02:11:51;22.20;99.90
12268;DHT22;6196;48.398;11.736;2022-07-23T02:14:18;21.90;99.90
12268;DHT22;6196;48.398;11.736;2022-07-23T02:16:44;21.80;99.90
12268;DHT22;6196;48.398;11.736;2022-07-23T02:19:12;21.70;99.90
12268;DHT22;6196;48.398;11.736;2022-07-23T02:21:39;21.50;99.90
12268;DHT22;6196;48.398;11.736;2022-07-23T02:24:06;21.20;99.90
12268;DHT22;6196;48.398;11.736;2022-07-23T02:26:33;21.10;99.90
12268;DHT22;6196;48.398;11.736;2022-07-23T02:29:02;21.00;99.90
12268;DHT22;6196;48.398;11.736;2022-07-23T02:31:30;20.80;99.90
12268;DHT22;6196;48.398;11.736;2022-07-23T02:33:58;20.70;99.90
12268;DHT22;6196;48.398;11.736;2022-07-23T02:36:26;20.60;99.90
12268;DHT22;6196;48.398;11.736;2022-07-23T02:38:53;20.50;99.90
12268;DHT22;6196;48.398;11.736;2022-07-23T02:41:20;20.40;99.90
12268;DHT22;6196;48.398;11.736;2022-07-23T02:43:47;20.30;99.90
12268;DHT22;6196;48.398;11.736;2022-07-23T02:46:14;20.40;99.90
12268;DHT22;6196;48.398;11.736;2022-07-23T02:48:40;20.30;99.90
12268;DHT22;6196;48.398;11.736;2022-07-23T02:51:07;20.00;99.90
12268;DHT22;6196;48.398;11.736;2022-07-23T02:53:40;19.90;99.90
12268;DHT22;6196;48.398;11.736;2022-07-23T02:56:08;19.80;99.90
12268;DHT22;6196;48.398;11.736;2022-07-23T02:58:35;19.80;99.90
12268;DHT22;6196;48.398;11.736;2022-07-23T03:01:02;19.70;99.90
12268;DHT22;6196;48.398;11.736;2022-07-23T03:03:30;19.80;99.90
12268;DHT22;6196;48.398;11.736;2022-07-23T03:05:57;19.60;99.90
12268;DHT22;6196;48.398;11.736;2022-07-23T03:08:23;19.50;99.90
12268;DHT22;6196;48.398;11.736;2022-07-23T03:10:50;19.30;99.90
12268;DHT22;6196;48.398;11.736;2022-07-23T03:13:17;19.30;99.90
12268;DHT22;6196;48.398;11.736;2022-07-23T03:15:44;19.40;99.90
12268;DHT22;6196;48.398;11.736;2022-07-23T03:18:11;19.40;99.90
12268;DHT22;6196;48.398;11.736;2022-07-23T03:20:38;19.40;99.90
12268;DHT22;6196;48.398;11.736;2022-07-23T03:23:05;19.20;99.90
12268;DHT22;6196;48.398;11.736;2022-07-23T03:25:32;18.80;99.90
12268;DHT22;6196;48.398;11.736;2022-07-23T03:27:59;18.80;99.90
12268;DHT22;6196;48.398;11.736;2022-07-23T03:30:26;18.90;99.90
12268;DHT22;6196;48.398;11.736;2022-07-23T03:32:52;19.00;99.90
12268;DHT22;6196;48.398;11.736;2022-07-23T03:35:19;19.00;99.90
12268;DHT22;6196;48.398;11.736;2022-07-23T03:37:46;19.10;99.90
12268;DHT22;6196;48.398;11.736;2022-07-23T03:40:13;19.10;99.90
12268;DHT22;6196;48.398;11.736;2022-07-23T03:42:40;19.10;99.90
12268;DHT22;6196;48.398;11.736;2022-07-23T03:45:09;19.00;99.90
12268;DHT22;6196;48.398;11.736;2022-07-23T03:47:36;18.80;99.90
12268;DHT22;6196;48.398;11.736;2022-07-23T03:50:03;18.90;99.90
12268;DHT22;6196;48.398;11.736;2022-07-23T03:52:31;19.00;99.90
12268;DHT22;6196;48.398;11.736;2022-07-23T03:54:58;19.00;99.90
12268;DHT22;6196;48.398;11.736;2022-07-23T03:57:24;18.90;99.90
12268;DHT22;6196;48.398;11.736;2022-07-23T03:59:51;18.90;99.90
12268;DHT22;6196;48.398;11.736;2022-07-23T04:02:18;18.80;99.90
12268;DHT22;6196;48.398;11.736;2022-07-23T04:04:45;18.70;99.90
12268;DHT22;6196;48.398;11.736;2022-07-23T04:07:13;18.70;99.90
12268;DHT22;6196;48.398;11.736;2022-07-23T04:09:40;18.70;99.90
12268;DHT22;6196;48.398;11.736;2022-07-23T04:12:12;18.70;99.90
12268;DHT22;6196;48.398;11.736;2022-07-23T04:14:39;18.70;99.90
12268;DHT22;6196;48.398;11.736;2022-07-23T04:17:06;18.70;99.90
12268;DHT22;6196;48.398;11.736;2022-07-23T04:19:33;18.80;99.90
12268;DHT22;6196;48.398;11.736;2022-07-23T04:21:59;18.80;99.90
12268;DHT22;6196;48.398;11.736;2022-07-23T04:24:26;18.90;99.90
12268;DHT22;6196;48.398;11.736;2022-07-23T04:26:53;18.90;99.90
12268;DHT22;6196;48.398;11.736;2022-07-23T04:29:20;18.90;99.90
12268;DHT22;6196;48.398;11.736;2022-07-23T04:31:47;18.90;99.90
12268;DHT22;6196;48.398;11.736;2022-07-23T04:34:14;18.90;99.90
12268;DHT22;6196;48.398;11.736;2022-07-23T04:36:41;19.00;99.90
12268;DHT22;6196;48.398;11.736;2022-07-23T04:39:08;19.00;99.90
12268;DHT22;6196;48.398;11.736;2022-07-23T04:41:35;19.00;99.90
12268;DHT22;6196;48.398;11.736;2022-07-23T04:44:02;19.10;99.90
12268;DHT22;6196;48.398;11.736;2022-07-23T04:46:30;19.10;99.90
12268;DHT22;6196;48.398;11.736;2022-07-23T04:48:57;19.20;99.90
12268;DHT22;6196;48.398;11.736;2022-07-23T04:51:25;19.20;99.90
12268;DHT22;6196;48.398;11.736;2022-07-23T04:53:51;19.20;99.90
12268;DHT22;6196;48.398;11.736;2022-07-23T04:56:18;19.30;99.90
12268;DHT22;6196;48.398;11.736;2022-07-23T04:58:45;19.30;99.90
12268;DHT22;6196;48.398;11.736;2022-07-23T05:01:12;19.40;99.90
12268;DHT22;6196;48.398;11.736;2022-07-23T05:03:39;19.50;99.90
12268;DHT22;6196;48.398;11.736;2022-07-23T05:06:06;19.40;99.90
12268;DHT22;6196;48.398;11.736;2022-07-23T05:08:33;19.50;99.90
12268;DHT22;6196;48.398;11.736;2022-07-23T05:11:00;19.70;99.90
12268;DHT22;6196;48.398;11.736;2022-07-23T05:13:27;19.80;99.90
12268;DHT22;6196;48.398;11.736;2022-07-23T05:15:54;19.80;99.90
12268;DHT22;6196;48.398;11.736;2022-07-23T05:18:21;19.70;99.90
12268;DHT22;6196;48.398;11.736;2022-07-23T05:20:48;19.80;99.90
12268;DHT22;6196;48.398;11.736;2022-07-23T05:23:15;19.80;99.90
12268;DHT22;6196;48.398;11.736;2022-07-23T05:25:41;19.80;99.90
12268;DHT22;6196;48.398;11.736;2022-07-23T05:28:08;19.80;99.90
12268;DHT22;6196;48.398;11.736;2022-07-23T05:30:35;19.70;99.90
12268;DHT22;6196;48.398;11.736;2022-07-23T05:33:02;19.60;99.90
12268;DHT22;6196;48.398;11.736;2022-07-23T05:35:30;19.60;99.90
12268;DHT22;6196;48.398;11.736;2022-07-23T05:37:56;19.60;99.90
12268;DHT22;6196;48.398;11.736;2022-07-23T05:40:23;19.40;99.90
12268;DHT22;6196;48.398;11.736;2022-07-23T05:42:50;19.50;99.90
12268;DHT22;6196;48.398;11.736;2022-07-23T05:45:17;19.50;99.90
12268;DHT22;6196;48.398;11.736;2022-07-23T05:47:47;19.50;99.90
12268;DHT22;6196;48.398;11.736;2022-07-23T05:50:15;19.60;99.90
12268;DHT22;6196;48.398;11.736;2022-07-23T05:52:43;19.60;99.90
12268;DHT22;6196;48.398;11.736;2022-07-23T05:55:11;19.70;99.90
12268;DHT22;6196;48.398;11.736;2022-07-23T05:57:41;19.80;99.90
12268;DHT22;6196;48.398;11.736;2022-07-23T06:00:09;19.80;99.90
12268;DHT22;6196;48.398;11.736;2022-07-23T06:02:38;19.70;99.90
12268;DHT22;6196;48.398;11.736;2022-07-23T06:05:06;19.70;99.90
12268;DHT22;6196;48.398;11.736;2022-07-23T06:07:34;19.70;99.90
12268;DHT22;6196;48.398;11.736;2022-07-23T06:10:02;19.70;99.90
12268;DHT22;6196;48.398;11.736;2022-07-23T06:12:30;19.80;99.90
12268;DHT22;6196;48.398;11.736;2022-07-23T06:14:57;19.90;99.90
12268;DHT22;6196;48.398;11.736;2022-07-23T06:17:24;19.90;99.90
12268;DHT22;6196;48.398;11.736;2022-07-23T06:19:52;20.00;99.90
12268;DHT22;6196;48.398;11.736;2022-07-23T06:22:20;20.10;99.90
12268;DHT22;6196;48.398;11.736;2022-07-23T06:24:48;20.40;99.90
12268;DHT22;6196;48.398;11.736;2022-07-23T06:27:15;20.40;99.90
12268;DHT22;6196;48.398;11.736;2022-07-23T06:29:42;20.50;99.90
12268;DHT22;6196;48.398;11.736;2022-07-23T06:32:09;20.60;99.90
12268;DHT22;6196;48.398;11.736;2022-07-23T06:34:36;20.60;99.90
12268;DHT22;6196;48.398;11.736;2022-07-23T06:37:03;20.80;99.90
12268;DHT22;6196;48.398;11.736;2022-07-23T06:39:30;20.80;99.90
12268;DHT22;6196;48.398;11.736;2022-07-23T06:41:56;20.80;99.90
12268;DHT22;6196;48.398;11.736;2022-07-23T06:44:26;20.80;99.90
12268;DHT22;6196;48.398;11.736;2022-07-23T06:46:53;20.90;99.90
12268;DHT22;6196;48.398;11.736;2022-07-23T06:49:20;21.00;99.90
12268;DHT22;6196;48.398;11.736;2022-07-23T06:51:47;20.90;99.90
12268;DHT22;6196;48.398;11.736;2022-07-23T06:54:14;20.90;99.90
12268;DHT22;6196;48.398;11.736;2022-07-23T06:56:41;21.00;99.90
12268;DHT22;6196;48.398;11.736;2022-07-23T06:59:09;21.20;99.90
12268;DHT22;6196;48.398;11.736;2022-07-23T07:01:36;21.30;99.90
12268;DHT22;6196;48.398;11.736;2022-07-23T07:04:04;21.30;99.90
12268;DHT22;6196;48.398;11.736;2022-07-23T07:06:31;21.10;99.90
12268;DHT22;6196;48.398;11.736;2022-07-23T07:08:58;21.00;99.90
12268;DHT22;6196;48.398;11.736;2022-07-23T07:11:25;20.90;99.90
12268;DHT22;6196;48.398;11.736;2022-07-23T07:13:52;21.00;99.90
12268;DHT22;6196;48.398;11.736;2022-07-23T07:16:20;21.10;99.90
12268;DHT22;6196;48.398;11.736;2022-07-23T07:18:47;21.40;99.90
12268;DHT22;6196;48.398;11.736;2022-07-23T07:21:14;21.50;99.90
12268;DHT22;6196;48.398;11.736;2022-07-23T07:23:41;21.70;99.90
12268;DHT22;6196;48.398;11.736;2022-07-23T07:26:07;21.60;99.90
12268;DHT22;6196;48.398;11.736;2022-07-23T07:28:34;21.50;99.90
12268;DHT22;6196;48.398;11.736;2022-07-23T07:31:01;21.40;99.90
12268;DHT22;6196;48.398;11.736;2022-07-23T07:33:29;21.50;99.90
12268;DHT22;6196;48.398;11.736;2022-07-23T07:35:56;21.60;99.90
12268;DHT22;6196;48.398;11.736;2022-07-23T07:38:23;21.70;99.90
12268;DHT22;6196;48.398;11.736;2022-07-23T07:40:50;21.90;99.90
12268;DHT22;6196;48.398;11.736;2022-07-23T07:43:17;22.00;99.90
12268;DHT22;6196;48.398;11.736;2022-07-23T07:45:44;22.10;99.90
12268;DHT22;6196;48.398;11.736;2022-07-23T07:48:11;22.10;99.90
12268;DHT22;6196;48.398;11.736;2022-07-23T07:50:38;22.00;99.90
12268;DHT22;6196;48.398;11.736;2022-07-23T07:53:05;21.90;99.90
12268;DHT22;6196;48.398;11.736;2022-07-23T07:55:32;21.90;99.90
12268;DHT22;6196;48.398;11.736;2022-07-23T07:57:59;22.00;99.90
12268;DHT22;6196;48.398;11.736;2022-07-23T08:00:28;22.00;99.90
12268;DHT22;6196;48.398;11.736;2022-07-23T08:02:55;21.90;99.90
12268;DHT22;6196;48.398;11.736;2022-07-23T08:05:27;21.80;99.90
12268;DHT22;6196;48.398;11.736;2022-07-23T08:07:56;21.90;99.90
12268;DHT22;6196;48.398;11.736;2022-07-23T08:10:25;21.80;99.90
12268;DHT22;6196;48.398;11.736;2022-07-23T08:12:54;21.60;99.90
12268;DHT22;6196;48.398;11.736;2022-07-23T08:15:24;21.70;99.90
12268;DHT22;6196;48.398;11.736;2022-07-23T08:17:53;21.70;99.90
12268;DHT22;6196;48.398;11.736;2022-07-23T08:20:22;21.70;99.90
12268;DHT22;6196;48.398;11.736;2022-07-23T08:22:52;21.40;99.90
12268;DHT22;6196;48.398;11.736;2022-07-23T08:25:34;21.30;99.90
12268;DHT22;6196;48.398;11.736;2022-07-23T08:28:05;21.30;99.90
12268;DHT22;6196;48.398;11.736;2022-07-23T08:30:35;21.30;99.90
12268;DHT22;6196;48.398;11.736;2022-07-23T08:35:36;21.50;99.90
12268;DHT22;6196;48.398;11.736;2022-07-23T08:38:05;21.60;99.90
12268;DHT22;6196;48.398;11.736;2022-07-23T08:40:35;21.70;99.90
12268;DHT22;6196;48.398;11.736;2022-07-23T08:43:11;21.80;99.90
12268;DHT22;6196;48.398;11.736;2022-07-23T08:45:43;21.60;99.90
12268;DHT22;6196;48.398;11.736;2022-07-23T08:48:14;21.40;99.90
12268;DHT22;6196;48.398;11.736;2022-07-23T08:50:45;21.20;99.90
12268;DHT22;6196;48.398;11.736;2022-07-23T08:53:15;21.30;99.90
12268;DHT22;6196;48.398;11.736;2022-07-23T08:55:48;21.10;99.90
12268;DHT22;6196;48.398;11.736;2022-07-23T08:58:20;20.90;99.90
12268;DHT22;6196;48.398;11.736;2022-07-23T09:00:53;20.80;99.90
12268;DHT22;6196;48.398;11.736;2022-07-23T09:03:25;21.00;99.90
12268;DHT22;6196;48.398;11.736;2022-07-23T09:05:54;21.20;99.90
12268;DHT22;6196;48.398;11.736;2022-07-23T09:08:47;21.40;99.90
12268;DHT22;6196;48.398;11.736;2022-07-23T09:11:17;21.70;99.90
12268;DHT22;6196;48.398;11.736;2022-07-23T09:13:48;21.90;99.90
12268;DHT22;6196;48.398;11.736;2022-07-23T09:16:24;22.00;99.90
12268;DHT22;6196;48.398;11.736;2022-07-23T09:19:01;22.30;99.90
12268;DHT22;6196;48.398;11.736;2022-07-23T09:21:35;22.80;99.90
12268;DHT22;6196;48.398;11.736;2022-07-23T09:24:08;23.50;99.90
12268;DHT22;6196;48.398;11.736;2022-07-23T09:26:40;24.40;99.90
12268;DHT22;6196;48.398;11.736;2022-07-23T09:29:20;25.00;99.90
12268;DHT22;6196;48.398;11.736;2022-07-23T09:31:58;25.20;99.90
12268;DHT22;6196;48.398;11.736;2022-07-23T09:34:28;25.30;99.90
12268;DHT22;6196;48.398;11.736;2022-07-23T09:37:08;25.50;99.90
12268;DHT22;6196;48.398;11.736;2022-07-23T09:42:38;25.40;99.90
12268;DHT22;6196;48.398;11.736;2022-07-23T09:45:10;25.50;99.90
12268;DHT22;6196;48.398;11.736;2022-07-23T09:47:38;25.60;99.90
12268;DHT22;6196;48.398;11.736;2022-07-23T09:50:09;25.10;99.90
12268;DHT22;6196;48.398;11.736;2022-07-23T09:52:47;24.60;99.90
12268;DHT22;6196;48.398;11.736;2022-07-23T09:55:16;24.60;99.90
12268;DHT22;6196;48.398;11.736;2022-07-23T09:57:45;25.30;99.90
12268;DHT22;6196;48.398;11.736;2022-07-23T10:00:16;25.60;99.90
12268;DHT22;6196;48.398;11.736;2022-07-23T10:02:46;25.90;99.90
12268;DHT22;6196;48.398;11.736;2022-07-23T10:05:13;26.20;99.90
12268;DHT22;6196;48.398;11.736;2022-07-23T10:07:42;26.40;99.90
12268;DHT22;6196;48.398;11.736;2022-07-23T10:10:13;27.00;99.90
12268;DHT22;6196;48.398;11.736;2022-07-23T10:12:43;27.60;99.90
12268;DHT22;6196;48.398;11.736;2022-07-23T10:15:10;27.30;99.90
12268;DHT22;6196;48.398;11.736;2022-07-23T10:17:37;27.60;99.90
12268;DHT22;6196;48.398;11.736;2022-07-23T10:20:04;27.70;99.90
12268;DHT22;6196;48.398;11.736;2022-07-23T10:22:42;27.90;99.90
12268;DHT22;6196;48.398;11.736;2022-07-23T10:31:07;29.00;99.90
12268;DHT22;6196;48.398;11.736;2022-07-23T10:37:21;29.30;99.90
12268;DHT22;6196;48.398;11.736;2022-07-23T10:40:14;29.40;99.90
12268;DHT22;6196;48.398;11.736;2022-07-23T10:42:45;29.40;99.90
12268;DHT22;6196;48.398;11.736;2022-07-23T10:45:31;29.10;99.90
12268;DHT22;6196;48.398;11.736;2022-07-23T10:48:16;29.10;99.90
12268;DHT22;6196;48.398;11.736;2022-07-23T10:51:07;29.90;99.90
12268;DHT22;6196;48.398;11.736;2022-07-23T10:53:58;30.70;99.90
12268;DHT22;6196;48.398;11.736;2022-07-23T10:59:21;30.50;99.90
12268;DHT22;6196;48.398;11.736;2022-07-23T11:01:49;31.00;99.90
12268;DHT22;6196;48.398;11.736;2022-07-23T11:04:18;31.10;99.90
12268;DHT22;6196;48.398;11.736;2022-07-23T11:12:31;31.20;99.90
12268;DHT22;6196;48.398;11.736;2022-07-23T11:20:22;29.90;99.90
12268;DHT22;6196;48.398;11.736;2022-07-23T11:22:55;29.90;99.90
12268;DHT22;6196;48.398;11.736;2022-07-23T11:28:17;30.60;99.90
12268;DHT22;6196;48.398;11.736;2022-07-23T11:30:47;31.70;99.90
12268;DHT22;6196;48.398;11.736;2022-07-23T11:33:18;31.60;99.90
12268;DHT22;6196;48.398;11.736;2022-07-23T11:35:59;31.90;99.90
12268;DHT22;6196;48.398;11.736;2022-07-23T11:38:31;31.50;99.90
12268;DHT22;6196;48.398;11.736;2022-07-23T11:40:59;31.10;99.90
12268;DHT22;6196;48.398;11.736;2022-07-23T11:43:26;30.50;99.90
12268;DHT22;6196;48.398;11.736;2022-07-23T11:45:57;30.20;99.90
12268;DHT22;6196;48.398;11.736;2022-07-23T11:48:30;29.80;99.90
12268;DHT22;6196;48.398;11.736;2022-07-23T11:51:02;29.40;99.90
12268;DHT22;6196;48.398;11.736;2022-07-23T11:53:31;29.60;99.90
12268;DHT22;6196;48.398;11.736;2022-07-23T11:56:04;29.80;99.90
12268;DHT22;6196;48.398;11.736;2022-07-23T11:58:37;29.90;99.90
12268;DHT22;6196;48.398;11.736;2022-07-23T12:01:05;30.30;99.90
12268;DHT22;6196;48.398;11.736;2022-07-23T12:03:49;30.10;99.90
12268;DHT22;6196;48.398;11.736;2022-07-23T12:06:19;30.30;99.90
12268;DHT22;6196;48.398;11.736;2022-07-23T12:08:46;30.50;99.90
12268;DHT22;6196;48.398;11.736;2022-07-23T12:11:13;30.10;99.90
12268;DHT22;6196;48.398;11.736;2022-07-23T12:13:40;30.00;99.90
12268;DHT22;6196;48.398;11.736;2022-07-23T12:16:08;30.40;99.90
12268;DHT22;6196;48.398;11.736;2022-07-23T12:18:35;30.10;99.90
12268;DHT22;6196;48.398;11.736;2022-07-23T12:21:04;30.30;99.90
12268;DHT22;6196;48.398;11.736;2022-07-23T12:23:33;30.40;99.90
12268;DHT22;6196;48.398;11.736;2022-07-23T12:26:03;30.00;99.90
12268;DHT22;6196;48.398;11.736;2022-07-23T12:28:32;30.30;99.90
12268;DHT22;6196;48.398;11.736;2022-07-23T12:31:00;30.90;99.90
12268;DHT22;6196;48.398;11.736;2022-07-23T12:33:39;31.40;99.90
12268;DHT22;6196;48.398;11.736;2022-07-23T12:36:09;31.20;99.90
12268;DHT22;6196;48.398;11.736;2022-07-23T12:38:47;31.30;99.90
12268;DHT22;6196;48.398;11.736;2022-07-23T12:41:17;30.80;99.90
12268;DHT22;6196;48.398;11.736;2022-07-23T12:43:45;31.20;99.90
12268;DHT22;6196;48.398;11.736;2022-07-23T12:46:14;31.00;99.90
12268;DHT22;6196;48.398;11.736;2022-07-23T12:51:29;30.70;99.90
12268;DHT22;6196;48.398;11.736;2022-07-23T12:54:04;30.80;99.90
12268;DHT22;6196;48.398;11.736;2022-07-23T12:56:38;31.00;99.90
12268;DHT22;6196;48.398;11.736;2022-07-23T12:59:15;30.60;99.90
12268;DHT22;6196;48.398;11.736;2022-07-23T13:01:53;30.50;99.90
12268;DHT22;6196;48.398;11.736;2022-07-23T13:04:24;30.40;99.90
12268;DHT22;6196;48.398;11.736;2022-07-23T13:06:58;29.90;99.90
12268;DHT22;6196;48.398;11.736;2022-07-23T13:09:33;29.70;99.90
12268;DHT22;6196;48.398;11.736;2022-07-23T13:12:08;29.00;99.90
12268;DHT22;6196;48.398;11.736;2022-07-23T13:14:37;28.80;99.90
12268;DHT22;6196;48.398;11.736;2022-07-23T13:17:05;29.10;99.90
12268;DHT22;6196;48.398;11.736;2022-07-23T13:19:33;29.10;99.90
12268;DHT22;6196;48.398;11.736;2022-07-23T13:22:01;29.20;99.90
12268;DHT22;6196;48.398;11.736;2022-07-23T13:24:34;28.80;99.90
12268;DHT22;6196;48.398;11.736;2022-07-23T13:27:04;28.70;99.90
12268;DHT22;6196;48.398;11.736;2022-07-23T13:29:33;28.70;99.90
12268;DHT22;6196;48.398;11.736;2022-07-23T13:32:02;28.20;99.90
12268;DHT22;6196;48.398;11.736;2022-07-23T13:34:39;28.40;99.90
12268;DHT22;6196;48.398;11.736;2022-07-23T13:37:07;28.20;99.90
12268;DHT22;6196;48.398;11.736;2022-07-23T13:39:34;28.20;99.90
12268;DHT22;6196;48.398;11.736;2022-07-23T13:42:04;28.60;99.90
12268;DHT22;6196;48.398;11.736;2022-07-23T13:44:34;29.10;99.90
12268;DHT22;6196;48.398;11.736;2022-07-23T13:47:02;28.50;99.90
12268;DHT22;6196;48.398;11.736;2022-07-23T13:49:30;28.50;99.90
12268;DHT22;6196;48.398;11.736;2022-07-23T13:51:57;28.60;99.90
12268;DHT22;6196;48.398;11.736;2022-07-23T13:54:24;29.40;99.90
12268;DHT22;6196;48.398;11.736;2022-07-23T13:56:54;30.20;99.90
12268;DHT22;6196;48.398;11.736;2022-07-23T13:59:22;30.30;99.90
12268;DHT22;6196;48.398;11.736;2022-07-23T14:01:52;30.50;99.90
12268;DHT22;6196;48.398;11.736;2022-07-23T14:04:40;30.80;99.90
12268;DHT22;6196;48.398;11.736;2022-07-23T14:07:08;30.80;99.90
12268;DHT22;6196;48.398;11.736;2022-07-23T14:09:35;30.40;99.90
12268;DHT22;6196;48.398;11.736;2022-07-23T14:12:03;30.10;99.90
12268;DHT22;6196;48.398;11.736;2022-07-23T14:14:30;29.60;99.90
12268;DHT22;6196;48.398;11.736;2022-07-23T14:16:58;29.10;99.90
12268;DHT22;6196;48.398;11.736;2022-07-23T14:19:27;28.60;99.90
12268;DHT22;6196;48.398;11.736;2022-07-23T14:21:56;27.80;99.90
12268;DHT22;6196;48.398;11.736;2022-07-23T14:24:23;27.80;99.90
12268;DHT22;6196;48.398;11.736;2022-07-23T14:26:55;27.70;99.90
12268;DHT22;6196;48.398;11.736;2022-07-23T14:29:22;27.80;99.90
12268;DHT22;6196;48.398;11.736;2022-07-23T14:31:49;27.70;99.90
12268;DHT22;6196;48.398;11.736;2022-07-23T14:34:16;27.70;99.90
12268;DHT22;6196;48.398;11.736;2022-07-23T14:36:53;27.60;99.90
12268;DHT22;6196;48.398;11.736;2022-07-23T14:39:20;27.60;99.90
12268;DHT22;6196;48.398;11.736;2022-07-23T14:41:47;27.60;99.90
12268;DHT22;6196;48.398;11.736;2022-07-23T14:44:16;27.50;99.90
12268;DHT22;6196;48.398;11.736;2022-07-23T14:46:43;27.40;99.90
12268;DHT22;6196;48.398;11.736;2022-07-23T14:49:10;27.40;99.90
12268;DHT22;6196;48.398;11.736;2022-07-23T14:51:37;27.50;99.90
12268;DHT22;6196;48.398;11.736;2022-07-23T14:54:04;28.20;99.90
12268;DHT22;6196;48.398;11.736;2022-07-23T14:56:32;29.20;99.90
12268;DHT22;6196;48.398;11.736;2022-07-23T14:59:00;30.00;99.90
12268;DHT22;6196;48.398;11.736;2022-07-23T15:01:27;30.60;99.90
12268;DHT22;6196;48.398;11.736;2022-07-23T15:03:55;30.90;99.90
12268;DHT22;6196;48.398;11.736;2022-07-23T15:06:25;31.10;99.90
12268;DHT22;6196;48.398;11.736;2022-07-23T15:08:52;30.60;99.90
12268;DHT22;6196;48.398;11.736;2022-07-23T15:11:19;30.30;99.90
12268;DHT22;6196;48.398;11.736;2022-07-23T15:13:46;30.10;99.90
12268;DHT22;6196;48.398;11.736;2022-07-23T15:16:15;29.60;99.90
12268;DHT22;6196;48.398;11.736;2022-07-23T15:18:42;29.10;99.90
12268;DHT22;6196;48.398;11.736;2022-07-23T15:21:09;29.30;99.90
12268;DHT22;6196;48.398;11.736;2022-07-23T15:23:37;29.30;99.90
12268;DHT22;6196;48.398;11.736;2022-07-23T15:26:07;29.30;99.90
12268;DHT22;6196;48.398;11.736;2022-07-23T15:28:35;29.50;99.90
12268;DHT22;6196;48.398;11.736;2022-07-23T15:31:02;29.20;99.90
12268;DHT22;6196;48.398;11.736;2022-07-23T15:33:34;29.00;99.90
12268;DHT22;6196;48.398;11.736;2022-07-23T15:36:03;29.00;99.90
12268;DHT22;6196;48.398;11.736;2022-07-23T15:38:31;28.70;99.90
12268;DHT22;6196;48.398;11.736;2022-07-23T15:40:59;28.50;99.90
12268;DHT22;6196;48.398;11.736;2022-07-23T15:43:26;28.70;99.90
12268;DHT22;6196;48.398;11.736;2022-07-23T15:45:53;29.00;99.90
12268;DHT22;6196;48.398;11.736;2022-07-23T15:48:21;29.10;99.90
12268;DHT22;6196;48.398;11.736;2022-07-23T15:50:49;28.80;99.90
12268;DHT22;6196;48.398;11.736;2022-07-23T15:53:16;28.60;99.90
12268;DHT22;6196;48.398;11.736;2022-07-23T15:56:02;28.50;99.90
12268;DHT22;6196;48.398;11.736;2022-07-23T15:58:30;28.30;99.90
12268;DHT22;6196;48.398;11.736;2022-07-23T16:00:58;28.10;99.90
12268;DHT22;6196;48.398;11.736;2022-07-23T16:03:25;27.80;99.90
12268;DHT22;6196;48.398;11.736;2022-07-23T16:05:53;27.50;99.90
12268;DHT22;6196;48.398;11.736;2022-07-23T16:08:21;27.50;99.90
12268;DHT22;6196;48.398;11.736;2022-07-23T16:10:48;27.30;99.90
12268;DHT22;6196;48.398;11.736;2022-07-23T16:13:15;27.10;99.90
12268;DHT22;6196;48.398;11.736;2022-07-23T16:15:42;27.00;99.90